sensor_id;sensor_type;location;lat;lon;timestamp;temperature;humidity
12111;DHT22;6119;52.372;8.990;2023-12-29T00:00:15;11.10;99.90
12111;DHT22;6119;52.372;8.990;2023-12-29T00:03:03;11.20;99.90
12111;DHT22;6119;52.372;8.990;2023-12-29T00:05:49;11.20;99.90
12111;DHT22;6119;52.372;8.990;2023-12-29T00:08:36;11.20;99.90
12111;DHT22;6119;52.372;8.990;2023-12-29T00:11:23;11.20;99.90
12111;DHT22;6119;52.372;8.990;2023-12-29T00:14:11;11.20;99.90
12111;DHT22;6119;52.372;8.990;2023-12-29T00:16:58;11.20;99.90
12111;DHT22;6119;52.372;8.990;2023-12-29T00:19:45;11.20;99.90
12111;DHT22;6119;52.372;8.990;2023-12-29T00:22:32;11.20;99.90
12111;DHT22;6119;52.372;8.990;2023-12-29T00:25:18;11.20;99.90
12111;DHT22;6119;52.372;8.990;2023-12-29T00:28:05;11.20;99.90
12111;DHT22;6119;52.372;8.990;2023-12-29T00:30:53;11.10;99.90
12111;DHT22;6119;52.372;8.990;2023-12-29T00:33:47;11.10;99.90
12111;DHT22;6119;52.372;8.990;2023-12-29T00:36:37;11.20;99.90
12111;DHT22;6119;52.372;8.990;2023-12-29T00:39:23;11.20;99.90
12111;DHT22;6119;52.372;8.990;2023-12-29T00:42:14;11.10;99.90
12111;DHT22;6119;52.372;8.990;2023-12-29T00:45:00;11.20;99.90
12111;DHT22;6119;52.372;8.990;2023-12-29T00:47:48;11.20;99.90
12111;DHT22;6119;52.372;8.990;2023-12-29T00:50:36;11.10;99.90
12111;DHT22;6119;52.372;8.990;2023-12-29T00:53:23;11.20;99.90
12111;DHT22;6119;52.372;8.990;2023-12-29T00:56:10;11.20;99.90
12111;DHT22;6119;52.372;8.990;2023-12-29T00:58:57;11.20;99.90
12111;DHT22;6119;52.372;8.990;2023-12-29T01:01:43;11.20;99.90
12111;DHT22;6119;52.372;8.990;2023-12-29T01:04:32;11.20;99.90
12111;DHT22;6119;52.372;8.990;2023-12-29T01:07:19;11.30;99.90
12111;DHT22;6119;52.372;8.990;2023-12-29T01:10:07;11.30;99.90
12111;DHT22;6119;52.372;8.990;2023-12-29T01:12:54;11.30;99.90
12111;DHT22;6119;52.372;8.990;2023-12-29T01:15:40;11.30;99.90
12111;DHT22;6119;52.372;8.990;2023-12-29T01:18:30;11.20;99.90
12111;DHT22;6119;52.372;8.990;2023-12-29T01:21:18;11.30;99.90
12111;DHT22;6119;52.372;8.990;2023-12-29T01:24:06;11.30;99.90
12111;DHT22;6119;52.372;8.990;2023-12-29T01:26:54;11.10;99.90
12111;DHT22;6119;52.372;8.990;2023-12-29T01:29:41;11.00;99.90
12111;DHT22;6119;52.372;8.990;2023-12-29T01:32:27;10.90;99.90
12111;DHT22;6119;52.372;8.990;2023-12-29T01:35:14;10.90;99.90
12111;DHT22;6119;52.372;8.990;2023-12-29T01:38:04;10.90;99.90
12111;DHT22;6119;52.372;8.990;2023-12-29T01:40:51;10.90;99.90
12111;DHT22;6119;52.372;8.990;2023-12-29T01:44:18;10.90;99.90
12111;DHT22;6119;52.372;8.990;2023-12-29T01:47:10;10.90;99.90
12111;DHT22;6119;52.372;8.990;2023-12-29T01:49:58;10.90;99.90
12111;DHT22;6119;52.372;8.990;2023-12-29T01:52:45;10.90;99.90
12111;DHT22;6119;52.372;8.990;2023-12-29T01:55:36;11.00;99.90
12111;DHT22;6119;52.372;8.990;2023-12-29T01:58:23;10.90;99.90
12111;DHT22;6119;52.372;8.990;2023-12-29T02:01:10;11.00;99.90
12111;DHT22;6119;52.372;8.990;2023-12-29T02:03:57;11.00;99.90
12111;DHT22;6119;52.372;8.990;2023-12-29T02:06:44;11.00;99.90
12111;DHT22;6119;52.372;8.990;2023-12-29T02:09:31;11.00;99.90
12111;DHT22;6119;52.372;8.990;2023-12-29T02:12:20;11.00;99.90
12111;DHT22;6119;52.372;8.990;2023-12-29T02:15:08;11.00;99.90
12111;DHT22;6119;52.372;8.990;2023-12-29T02:18:00;11.10;99.90
12111;DHT22;6119;52.372;8.990;2023-12-29T02:20:48;11.10;99.90
12111;DHT22;6119;52.372;8.990;2023-12-29T02:23:35;11.10;99.90
12111;DHT22;6119;52.372;8.990;2023-12-29T02:26:28;11.10;99.90
12111;DHT22;6119;52.372;8.990;2023-12-29T02:29:20;11.10;99.90
12111;DHT22;6119;52.372;8.990;2023-12-29T02:32:11;11.10;99.90
12111;DHT22;6119;52.372;8.990;2023-12-29T02:34:59;11.20;99.90
12111;DHT22;6119;52.372;8.990;2023-12-29T02:37:47;11.10;99.90
12111;DHT22;6119;52.372;8.990;2023-12-29T02:40:34;11.10;99.90
12111;DHT22;6119;52.372;8.990;2023-12-29T02:43:22;11.20;99.90
12111;DHT22;6119;52.372;8.990;2023-12-29T02:46:09;11.10;99.90
12111;DHT22;6119;52.372;8.990;2023-12-29T02:48:55;11.10;99.90
12111;DHT22;6119;52.372;8.990;2023-12-29T02:51:42;11.20;99.90
12111;DHT22;6119;52.372;8.990;2023-12-29T02:54:30;11.20;99.90
12111;DHT22;6119;52.372;8.990;2023-12-29T02:57:17;11.20;99.90
12111;DHT22;6119;52.372;8.990;2023-12-29T03:00:06;11.20;99.90
12111;DHT22;6119;52.372;8.990;2023-12-29T03:02:53;11.20;99.90
12111;DHT22;6119;52.372;8.990;2023-12-29T03:05:40;11.20;99.90
12111;DHT22;6119;52.372;8.990;2023-12-29T03:08:27;11.20;99.90
12111;DHT22;6119;52.372;8.990;2023-12-29T03:11:14;11.20;99.90
12111;DHT22;6119;52.372;8.990;2023-12-29T03:14:01;11.30;99.90
12111;DHT22;6119;52.372;8.990;2023-12-29T03:16:48;11.30;99.90
12111;DHT22;6119;52.372;8.990;2023-12-29T03:19:35;11.30;99.90
12111;DHT22;6119;52.372;8.990;2023-12-29T03:22:22;11.30;99.90
12111;DHT22;6119;52.372;8.990;2023-12-29T03:25:08;11.30;99.90
12111;DHT22;6119;52.372;8.990;2023-12-29T03:27:55;11.40;99.90
12111;DHT22;6119;52.372;8.990;2023-12-29T03:30:42;11.40;99.90
12111;DHT22;6119;52.372;8.990;2023-12-29T03:33:30;11.30;99.90
12111;DHT22;6119;52.372;8.990;2023-12-29T03:36:17;11.30;99.90
12111;DHT22;6119;52.372;8.990;2023-12-29T03:39:03;11.20;99.90
12111;DHT22;6119;52.372;8.990;2023-12-29T03:41:50;11.20;99.90
12111;DHT22;6119;52.372;8.990;2023-12-29T03:44:36;11.10;99.90
12111;DHT22;6119;52.372;8.990;2023-12-29T03:47:23;11.00;99.90
12111;DHT22;6119;52.372;8.990;2023-12-29T03:50:11;11.00;99.90
12111;DHT22;6119;52.372;8.990;2023-12-29T03:52:57;10.90;99.90
12111;DHT22;6119;52.372;8.990;2023-12-29T03:55:44;10.90;99.90
12111;DHT22;6119;52.372;8.990;2023-12-29T03:58:31;10.90;99.90
12111;DHT22;6119;52.372;8.990;2023-12-29T04:01:17;10.90;99.90
12111;DHT22;6119;52.372;8.990;2023-12-29T04:04:05;10.90;99.90
12111;DHT22;6119;52.372;8.990;2023-12-29T04:06:53;10.90;99.90
12111;DHT22;6119;52.372;8.990;2023-12-29T04:09:40;10.90;99.90
12111;DHT22;6119;52.372;8.990;2023-12-29T04:12:26;10.90;99.90
12111;DHT22;6119;52.372;8.990;2023-12-29T04:15:13;10.80;99.90
12111;DHT22;6119;52.372;8.990;2023-12-29T04:18:00;10.80;99.90
12111;DHT22;6119;52.372;8.990;2023-12-29T04:20:47;10.80;99.90
12111;DHT22;6119;52.372;8.990;2023-12-29T04:23:35;10.80;99.90
12111;DHT22;6119;52.372;8.990;2023-12-29T04:26:21;10.70;99.90
12111;DHT22;6119;52.372;8.990;2023-12-29T04:29:08;10.70;99.90
12111;DHT22;6119;52.372;8.990;2023-12-29T04:31:54;10.70;99.90
12111;DHT22;6119;52.372;8.990;2023-12-29T04:34:41;10.70;99.90
12111;DHT22;6119;52.372;8.990;2023-12-29T04:37:28;10.70;99.90
12111;DHT22;6119;52.372;8.990;2023-12-29T04:40:16;10.60;99.90
12111;DHT22;6119;52.372;8.990;2023-12-29T04:43:03;10.50;99.90
12111;DHT22;6119;52.372;8.990;2023-12-29T04:45:49;10.50;99.90
12111;DHT22;6119;52.372;8.990;2023-12-29T04:48:36;10.50;99.90
12111;DHT22;6119;52.372;8.990;2023-12-29T04:51:23;10.40;99.90
12111;DHT22;6119;52.372;8.990;2023-12-29T04:54:10;10.40;99.90
12111;DHT22;6119;52.372;8.990;2023-12-29T04:56:57;10.30;99.90
12111;DHT22;6119;52.372;8.990;2023-12-29T04:59:44;10.40;99.90
12111;DHT22;6119;52.372;8.990;2023-12-29T05:02:30;10.40;99.90
12111;DHT22;6119;52.372;8.990;2023-12-29T05:05:17;10.40;99.90
12111;DHT22;6119;52.372;8.990;2023-12-29T05:08:04;10.40;99.90
12111;DHT22;6119;52.372;8.990;2023-12-29T05:10:51;10.40;99.90
12111;DHT22;6119;52.372;8.990;2023-12-29T05:13:39;10.40;99.90
12111;DHT22;6119;52.372;8.990;2023-12-29T05:16:25;10.40;99.90
12111;DHT22;6119;52.372;8.990;2023-12-29T05:19:12;10.40;99.90
12111;DHT22;6119;52.372;8.990;2023-12-29T05:21:58;10.40;99.90
12111;DHT22;6119;52.372;8.990;2023-12-29T05:24:45;10.40;99.90
12111;DHT22;6119;52.372;8.990;2023-12-29T05:27:31;10.40;99.90
12111;DHT22;6119;52.372;8.990;2023-12-29T05:30:21;10.40;99.90
12111;DHT22;6119;52.372;8.990;2023-12-29T05:33:08;10.30;99.90
12111;DHT22;6119;52.372;8.990;2023-12-29T05:35:55;10.30;99.90
12111;DHT22;6119;52.372;8.990;2023-12-29T05:38:44;10.40;99.90
12111;DHT22;6119;52.372;8.990;2023-12-29T05:41:32;10.40;99.90
12111;DHT22;6119;52.372;8.990;2023-12-29T05:44:19;10.40;99.90
12111;DHT22;6119;52.372;8.990;2023-12-29T05:47:07;10.40;99.90
12111;DHT22;6119;52.372;8.990;2023-12-29T05:49:53;10.40;99.90
12111;DHT22;6119;52.372;8.990;2023-12-29T05:52:41;10.50;99.90
12111;DHT22;6119;52.372;8.990;2023-12-29T05:55:27;10.50;99.90
12111;DHT22;6119;52.372;8.990;2023-12-29T05:58:14;10.50;99.90
12111;DHT22;6119;52.372;8.990;2023-12-29T06:01:00;10.50;99.90
12111;DHT22;6119;52.372;8.990;2023-12-29T06:03:48;10.40;99.90
12111;DHT22;6119;52.372;8.990;2023-12-29T06:06:35;10.40;99.90
12111;DHT22;6119;52.372;8.990;2023-12-29T06:09:21;10.40;99.90
12111;DHT22;6119;52.372;8.990;2023-12-29T06:12:08;10.30;99.90
12111;DHT22;6119;52.372;8.990;2023-12-29T06:14:54;10.30;99.90
12111;DHT22;6119;52.372;8.990;2023-12-29T06:17:41;10.30;99.90
12111;DHT22;6119;52.372;8.990;2023-12-29T06:20:29;10.20;99.90
12111;DHT22;6119;52.372;8.990;2023-12-29T06:23:16;10.30;99.90
12111;DHT22;6119;52.372;8.990;2023-12-29T06:26:03;10.30;99.90
12111;DHT22;6119;52.372;8.990;2023-12-29T06:28:50;10.20;99.90
12111;DHT22;6119;52.372;8.990;2023-12-29T06:31:40;10.20;99.90
12111;DHT22;6119;52.372;8.990;2023-12-29T06:34:28;10.10;99.90
12111;DHT22;6119;52.372;8.990;2023-12-29T06:37:15;10.10;99.90
12111;DHT22;6119;52.372;8.990;2023-12-29T06:40:02;10.20;99.90
12111;DHT22;6119;52.372;8.990;2023-12-29T06:42:49;10.20;99.90
12111;DHT22;6119;52.372;8.990;2023-12-29T06:45:35;10.30;99.90
12111;DHT22;6119;52.372;8.990;2023-12-29T06:48:22;10.30;99.90
12111;DHT22;6119;52.372;8.990;2023-12-29T06:51:09;10.30;99.90
12111;DHT22;6119;52.372;8.990;2023-12-29T06:53:57;10.40;99.90
12111;DHT22;6119;52.372;8.990;2023-12-29T06:56:45;10.30;99.90
12111;DHT22;6119;52.372;8.990;2023-12-29T06:59:32;10.30;99.90
12111;DHT22;6119;52.372;8.990;2023-12-29T07:02:19;10.30;99.90
12111;DHT22;6119;52.372;8.990;2023-12-29T07:05:06;10.30;99.90
12111;DHT22;6119;52.372;8.990;2023-12-29T07:07:53;10.30;99.90
12111;DHT22;6119;52.372;8.990;2023-12-29T07:10:41;10.40;99.90
12111;DHT22;6119;52.372;8.990;2023-12-29T07:13:28;10.40;99.90
12111;DHT22;6119;52.372;8.990;2023-12-29T07:16:14;10.50;99.90
12111;DHT22;6119;52.372;8.990;2023-12-29T07:19:01;10.50;99.90
12111;DHT22;6119;52.372;8.990;2023-12-29T07:21:48;10.60;99.90
12111;DHT22;6119;52.372;8.990;2023-12-29T07:24:35;10.60;99.90
12111;DHT22;6119;52.372;8.990;2023-12-29T07:27:24;10.60;99.90
12111;DHT22;6119;52.372;8.990;2023-12-29T07:30:11;10.70;99.90
12111;DHT22;6119;52.372;8.990;2023-12-29T07:32:58;10.70;99.90
12111;DHT22;6119;52.372;8.990;2023-12-29T07:35:46;10.70;99.90
12111;DHT22;6119;52.372;8.990;2023-12-29T07:38:33;10.70;99.90
12111;DHT22;6119;52.372;8.990;2023-12-29T07:41:20;10.80;99.90
12111;DHT22;6119;52.372;8.990;2023-12-29T07:44:10;10.80;99.90
12111;DHT22;6119;52.372;8.990;2023-12-29T07:46:57;10.80;99.90
12111;DHT22;6119;52.372;8.990;2023-12-29T07:49:43;10.70;99.90
12111;DHT22;6119;52.372;8.990;2023-12-29T07:52:30;10.80;99.90
12111;DHT22;6119;52.372;8.990;2023-12-29T07:55:17;10.80;99.90
12111;DHT22;6119;52.372;8.990;2023-12-29T07:58:04;10.80;99.90
12111;DHT22;6119;52.372;8.990;2023-12-29T08:00:52;10.80;99.90
12111;DHT22;6119;52.372;8.990;2023-12-29T08:03:39;10.80;99.90
12111;DHT22;6119;52.372;8.990;2023-12-29T08:06:26;10.80;99.90
12111;DHT22;6119;52.372;8.990;2023-12-29T08:09:12;10.90;99.90
12111;DHT22;6119;52.372;8.990;2023-12-29T08:11:59;10.90;99.90
12111;DHT22;6119;52.372;8.990;2023-12-29T08:14:46;10.90;99.90
12111;DHT22;6119;52.372;8.990;2023-12-29T08:17:34;10.90;99.90
12111;DHT22;6119;52.372;8.990;2023-12-29T08:20:20;10.80;99.90
12111;DHT22;6119;52.372;8.990;2023-12-29T08:23:09;10.90;99.90
12111;DHT22;6119;52.372;8.990;2023-12-29T08:25:56;10.80;99.90
12111;DHT22;6119;52.372;8.990;2023-12-29T08:28:43;10.90;99.90
12111;DHT22;6119;52.372;8.990;2023-12-29T08:31:30;10.90;99.90
12111;DHT22;6119;52.372;8.990;2023-12-29T08:34:18;10.90;99.90
12111;DHT22;6119;52.372;8.990;2023-12-29T08:37:05;10.90;99.90
12111;DHT22;6119;52.372;8.990;2023-12-29T08:39:53;10.90;99.90
12111;DHT22;6119;52.372;8.990;2023-12-29T08:42:39;10.90;99.90
12111;DHT22;6119;52.372;8.990;2023-12-29T08:45:26;10.90;99.90
12111;DHT22;6119;52.372;8.990;2023-12-29T08:48:13;10.90;99.90
12111;DHT22;6119;52.372;8.990;2023-12-29T08:51:01;10.90;99.90
12111;DHT22;6119;52.372;8.990;2023-12-29T08:53:48;10.90;99.90
12111;DHT22;6119;52.372;8.990;2023-12-29T08:56:34;10.90;99.90
12111;DHT22;6119;52.372;8.990;2023-12-29T08:59:21;11.00;99.90
12111;DHT22;6119;52.372;8.990;2023-12-29T09:02:08;10.90;99.90
12111;DHT22;6119;52.372;8.990;2023-12-29T09:04:55;10.90;99.90
12111;DHT22;6119;52.372;8.990;2023-12-29T09:07:43;10.90;99.90
12111;DHT22;6119;52.372;8.990;2023-12-29T09:10:30;10.90;99.90
12111;DHT22;6119;52.372;8.990;2023-12-29T09:13:16;10.90;99.90
12111;DHT22;6119;52.372;8.990;2023-12-29T09:16:04;10.80;99.90
12111;DHT22;6119;52.372;8.990;2023-12-29T09:18:52;10.80;99.90
12111;DHT22;6119;52.372;8.990;2023-12-29T09:21:45;10.70;99.90
12111;DHT22;6119;52.372;8.990;2023-12-29T09:24:35;10.60;99.90
12111;DHT22;6119;52.372;8.990;2023-12-29T09:27:22;10.60;99.90
12111;DHT22;6119;52.372;8.990;2023-12-29T09:30:09;10.50;99.90
12111;DHT22;6119;52.372;8.990;2023-12-29T09:32:56;10.40;99.90
12111;DHT22;6119;52.372;8.990;2023-12-29T09:35:42;10.30;99.90
12111;DHT22;6119;52.372;8.990;2023-12-29T09:38:29;10.30;99.90
12111;DHT22;6119;52.372;8.990;2023-12-29T09:41:22;10.30;99.90
12111;DHT22;6119;52.372;8.990;2023-12-29T09:44:20;10.20;99.90
12111;DHT22;6119;52.372;8.990;2023-12-29T09:47:09;10.60;99.90
12111;DHT22;6119;52.372;8.990;2023-12-29T09:49:57;10.20;99.90
12111;DHT22;6119;52.372;8.990;2023-12-29T09:52:48;10.10;99.90
12111;DHT22;6119;52.372;8.990;2023-12-29T09:55:35;10.00;99.90
12111;DHT22;6119;52.372;8.990;2023-12-29T09:58:24;9.80;99.90
12111;DHT22;6119;52.372;8.990;2023-12-29T10:01:11;10.00;99.90
12111;DHT22;6119;52.372;8.990;2023-12-29T10:03:59;9.90;99.90
12111;DHT22;6119;52.372;8.990;2023-12-29T10:06:47;9.90;99.90
12111;DHT22;6119;52.372;8.990;2023-12-29T10:09:37;9.90;99.90
12111;DHT22;6119;52.372;8.990;2023-12-29T10:12:24;10.00;99.90
12111;DHT22;6119;52.372;8.990;2023-12-29T10:15:21;10.00;99.90
12111;DHT22;6119;52.372;8.990;2023-12-29T10:18:18;10.00;99.90
12111;DHT22;6119;52.372;8.990;2023-12-29T10:21:15;9.90;99.90
12111;DHT22;6119;52.372;8.990;2023-12-29T10:24:09;10.00;99.90
12111;DHT22;6119;52.372;8.990;2023-12-29T10:26:57;10.00;99.90
12111;DHT22;6119;52.372;8.990;2023-12-29T10:29:44;10.10;99.90
12111;DHT22;6119;52.372;8.990;2023-12-29T10:32:31;10.10;99.90
12111;DHT22;6119;52.372;8.990;2023-12-29T10:35:18;10.10;99.90
12111;DHT22;6119;52.372;8.990;2023-12-29T10:38:09;10.10;99.90
12111;DHT22;6119;52.372;8.990;2023-12-29T10:41:10;10.20;99.90
12111;DHT22;6119;52.372;8.990;2023-12-29T10:44:06;10.30;99.90
12111;DHT22;6119;52.372;8.990;2023-12-29T10:46:53;10.30;99.90
12111;DHT22;6119;52.372;8.990;2023-12-29T10:49:42;10.30;99.90
12111;DHT22;6119;52.372;8.990;2023-12-29T10:52:29;10.30;99.90
12111;DHT22;6119;52.372;8.990;2023-12-29T10:55:16;10.40;99.90
12111;DHT22;6119;52.372;8.990;2023-12-29T10:58:03;10.40;99.90
12111;DHT22;6119;52.372;8.990;2023-12-29T11:00:49;10.40;99.90
12111;DHT22;6119;52.372;8.990;2023-12-29T11:03:36;10.40;99.90
12111;DHT22;6119;52.372;8.990;2023-12-29T11:06:24;10.50;99.90
12111;DHT22;6119;52.372;8.990;2023-12-29T11:09:11;10.50;99.90
12111;DHT22;6119;52.372;8.990;2023-12-29T11:11:59;10.50;99.90
12111;DHT22;6119;52.372;8.990;2023-12-29T11:14:47;10.60;99.90
12111;DHT22;6119;52.372;8.990;2023-12-29T11:17:35;10.60;99.90
12111;DHT22;6119;52.372;8.990;2023-12-29T11:20:23;10.70;99.90
12111;DHT22;6119;52.372;8.990;2023-12-29T11:23:13;10.70;99.90
12111;DHT22;6119;52.372;8.990;2023-12-29T11:26:00;10.80;99.90
12111;DHT22;6119;52.372;8.990;2023-12-29T11:28:48;10.80;99.90
12111;DHT22;6119;52.372;8.990;2023-12-29T11:31:35;10.80;99.90
12111;DHT22;6119;52.372;8.990;2023-12-29T11:34:26;10.80;99.90
12111;DHT22;6119;52.372;8.990;2023-12-29T11:37:26;10.80;99.90
12111;DHT22;6119;52.372;8.990;2023-12-29T11:40:19;10.90;99.90
12111;DHT22;6119;52.372;8.990;2023-12-29T11:43:14;10.90;99.90
12111;DHT22;6119;52.372;8.990;2023-12-29T11:46:02;10.90;99.90
12111;DHT22;6119;52.372;8.990;2023-12-29T11:48:56;10.90;99.90
12111;DHT22;6119;52.372;8.990;2023-12-29T11:51:46;11.00;99.90
12111;DHT22;6119;52.372;8.990;2023-12-29T11:54:34;11.00;99.90
12111;DHT22;6119;52.372;8.990;2023-12-29T11:57:32;11.00;99.90
12111;DHT22;6119;52.372;8.990;2023-12-29T12:00:19;11.00;99.90
12111;DHT22;6119;52.372;8.990;2023-12-29T12:03:17;10.90;99.90
12111;DHT22;6119;52.372;8.990;2023-12-29T12:06:05;11.00;99.90
12111;DHT22;6119;52.372;8.990;2023-12-29T12:09:15;11.10;99.90
12111;DHT22;6119;52.372;8.990;2023-12-29T12:12:02;11.10;99.90
12111;DHT22;6119;52.372;8.990;2023-12-29T12:14:52;11.10;99.90
12111;DHT22;6119;52.372;8.990;2023-12-29T12:17:39;11.10;99.90
12111;DHT22;6119;52.372;8.990;2023-12-29T12:20:26;11.10;99.90
12111;DHT22;6119;52.372;8.990;2023-12-29T12:23:17;11.10;99.90
12111;DHT22;6119;52.372;8.990;2023-12-29T12:26:06;11.10;99.90
12111;DHT22;6119;52.372;8.990;2023-12-29T12:28:53;11.10;99.90
12111;DHT22;6119;52.372;8.990;2023-12-29T12:31:53;11.10;99.90
12111;DHT22;6119;52.372;8.990;2023-12-29T12:34:40;11.10;99.90
12111;DHT22;6119;52.372;8.990;2023-12-29T12:37:28;11.10;99.90
12111;DHT22;6119;52.372;8.990;2023-12-29T12:40:25;11.10;99.90
12111;DHT22;6119;52.372;8.990;2023-12-29T12:43:50;11.10;99.90
12111;DHT22;6119;52.372;8.990;2023-12-29T12:46:41;11.10;99.90
12111;DHT22;6119;52.372;8.990;2023-12-29T12:49:33;11.10;99.90
12111;DHT22;6119;52.372;8.990;2023-12-29T12:52:20;11.10;99.90
12111;DHT22;6119;52.372;8.990;2023-12-29T12:55:08;11.10;99.90
12111;DHT22;6119;52.372;8.990;2023-12-29T12:57:55;11.20;99.90
12111;DHT22;6119;52.372;8.990;2023-12-29T13:00:43;11.10;99.90
12111;DHT22;6119;52.372;8.990;2023-12-29T13:03:33;11.10;99.90
12111;DHT22;6119;52.372;8.990;2023-12-29T13:06:21;11.20;99.90
12111;DHT22;6119;52.372;8.990;2023-12-29T13:09:09;11.30;99.90
12111;DHT22;6119;52.372;8.990;2023-12-29T13:12:11;11.30;99.90
12111;DHT22;6119;52.372;8.990;2023-12-29T13:15:05;11.30;99.90
12111;DHT22;6119;52.372;8.990;2023-12-29T13:17:53;11.30;99.90
12111;DHT22;6119;52.372;8.990;2023-12-29T13:20:43;11.30;99.90
12111;DHT22;6119;52.372;8.990;2023-12-29T13:23:32;11.30;99.90
12111;DHT22;6119;52.372;8.990;2023-12-29T13:26:19;11.30;99.90
12111;DHT22;6119;52.372;8.990;2023-12-29T13:29:06;11.30;99.90
12111;DHT22;6119;52.372;8.990;2023-12-29T13:31:54;11.20;99.90
12111;DHT22;6119;52.372;8.990;2023-12-29T13:34:53;11.30;99.90
12111;DHT22;6119;52.372;8.990;2023-12-29T13:37:47;11.20;99.90
12111;DHT22;6119;52.372;8.990;2023-12-29T13:40:39;11.30;99.90
12111;DHT22;6119;52.372;8.990;2023-12-29T13:43:28;11.30;99.90
12111;DHT22;6119;52.372;8.990;2023-12-29T13:46:16;11.20;99.90
12111;DHT22;6119;52.372;8.990;2023-12-29T13:49:05;11.30;99.90
12111;DHT22;6119;52.372;8.990;2023-12-29T13:51:52;11.30;99.90
12111;DHT22;6119;52.372;8.990;2023-12-29T13:54:43;11.20;99.90
12111;DHT22;6119;52.372;8.990;2023-12-29T13:57:32;11.30;99.90
12111;DHT22;6119;52.372;8.990;2023-12-29T14:00:20;11.30;99.90
12111;DHT22;6119;52.372;8.990;2023-12-29T14:03:14;11.30;99.90
12111;DHT22;6119;52.372;8.990;2023-12-29T14:06:04;11.30;99.90
12111;DHT22;6119;52.372;8.990;2023-12-29T14:08:50;11.40;99.90
12111;DHT22;6119;52.372;8.990;2023-12-29T14:11:44;11.30;99.90
12111;DHT22;6119;52.372;8.990;2023-12-29T14:14:32;11.30;99.90
12111;DHT22;6119;52.372;8.990;2023-12-29T14:17:21;11.30;99.90
12111;DHT22;6119;52.372;8.990;2023-12-29T14:20:08;11.20;99.90
12111;DHT22;6119;52.372;8.990;2023-12-29T14:23:01;11.30;99.90
12111;DHT22;6119;52.372;8.990;2023-12-29T14:25:48;11.30;99.90
12111;DHT22;6119;52.372;8.990;2023-12-29T14:28:35;11.20;99.90
12111;DHT22;6119;52.372;8.990;2023-12-29T14:31:23;11.20;99.90
12111;DHT22;6119;52.372;8.990;2023-12-29T14:34:12;11.20;99.90
12111;DHT22;6119;52.372;8.990;2023-12-29T14:37:01;11.20;99.90
12111;DHT22;6119;52.372;8.990;2023-12-29T14:39:48;11.20;99.90
12111;DHT22;6119;52.372;8.990;2023-12-29T14:42:35;11.20;99.90
12111;DHT22;6119;52.372;8.990;2023-12-29T14:45:22;11.20;99.90
12111;DHT22;6119;52.372;8.990;2023-12-29T14:48:10;11.20;99.90
12111;DHT22;6119;52.372;8.990;2023-12-29T14:50:57;11.20;99.90
12111;DHT22;6119;52.372;8.990;2023-12-29T14:53:45;11.10;99.90
12111;DHT22;6119;52.372;8.990;2023-12-29T14:56:31;11.20;99.90
12111;DHT22;6119;52.372;8.990;2023-12-29T14:59:18;11.10;99.90
12111;DHT22;6119;52.372;8.990;2023-12-29T15:02:05;11.10;99.90
12111;DHT22;6119;52.372;8.990;2023-12-29T15:04:54;11.10;99.90
12111;DHT22;6119;52.372;8.990;2023-12-29T15:07:41;11.10;99.90
12111;DHT22;6119;52.372;8.990;2023-12-29T15:10:27;11.10;99.90
12111;DHT22;6119;52.372;8.990;2023-12-29T15:13:14;11.10;99.90
12111;DHT22;6119;52.372;8.990;2023-12-29T15:16:02;11.10;99.90
12111;DHT22;6119;52.372;8.990;2023-12-29T15:18:49;11.00;99.90
12111;DHT22;6119;52.372;8.990;2023-12-29T15:21:37;11.00;99.90
12111;DHT22;6119;52.372;8.990;2023-12-29T15:24:24;11.00;99.90
12111;DHT22;6119;52.372;8.990;2023-12-29T15:27:11;11.00;99.90
12111;DHT22;6119;52.372;8.990;2023-12-29T15:29:57;11.00;99.90
12111;DHT22;6119;52.372;8.990;2023-12-29T15:32:44;11.00;99.90
12111;DHT22;6119;52.372;8.990;2023-12-29T15:35:32;11.00;99.90
12111;DHT22;6119;52.372;8.990;2023-12-29T15:38:20;11.00;99.90
12111;DHT22;6119;52.372;8.990;2023-12-29T15:41:07;11.00;99.90
12111;DHT22;6119;52.372;8.990;2023-12-29T15:43:53;10.90;99.90
12111;DHT22;6119;52.372;8.990;2023-12-29T15:46:40;10.90;99.90
12111;DHT22;6119;52.372;8.990;2023-12-29T15:49:27;10.90;99.90
12111;DHT22;6119;52.372;8.990;2023-12-29T15:52:14;10.90;99.90
12111;DHT22;6119;52.372;8.990;2023-12-29T15:55:04;10.90;99.90
12111;DHT22;6119;52.372;8.990;2023-12-29T15:57:52;10.90;99.90
12111;DHT22;6119;52.372;8.990;2023-12-29T16:00:39;10.80;99.90
12111;DHT22;6119;52.372;8.990;2023-12-29T16:03:26;10.80;99.90
12111;DHT22;6119;52.372;8.990;2023-12-29T16:06:18;10.90;99.90
12111;DHT22;6119;52.372;8.990;2023-12-29T16:09:04;10.90;99.90
12111;DHT22;6119;52.372;8.990;2023-12-29T16:11:52;10.90;99.90
12111;DHT22;6119;52.372;8.990;2023-12-29T16:14:41;10.80;99.90
12111;DHT22;6119;52.372;8.990;2023-12-29T16:17:28;10.90;99.90
12111;DHT22;6119;52.372;8.990;2023-12-29T16:20:15;10.90;99.90
12111;DHT22;6119;52.372;8.990;2023-12-29T16:23:01;10.90;99.90
12111;DHT22;6119;52.372;8.990;2023-12-29T16:25:49;10.80;99.90
12111;DHT22;6119;52.372;8.990;2023-12-29T16:28:37;10.80;99.90
12111;DHT22;6119;52.372;8.990;2023-12-29T16:31:24;10.80;99.90
12111;DHT22;6119;52.372;8.990;2023-12-29T16:34:11;10.80;99.90
12111;DHT22;6119;52.372;8.990;2023-12-29T16:36:59;10.80;99.90
12111;DHT22;6119;52.372;8.990;2023-12-29T16:39:46;10.70;99.90
12111;DHT22;6119;52.372;8.990;2023-12-29T16:42:32;10.70;99.90
12111;DHT22;6119;52.372;8.990;2023-12-29T16:45:22;10.70;99.90
12111;DHT22;6119;52.372;8.990;2023-12-29T16:48:09;10.70;99.90
12111;DHT22;6119;52.372;8.990;2023-12-29T16:50:56;10.70;99.90
12111;DHT22;6119;52.372;8.990;2023-12-29T16:53:43;10.70;99.90
12111;DHT22;6119;52.372;8.990;2023-12-29T16:56:29;10.60;99.90
12111;DHT22;6119;52.372;8.990;2023-12-29T16:59:16;10.50;99.90
12111;DHT22;6119;52.372;8.990;2023-12-29T17:02:05;10.50;99.90
12111;DHT22;6119;52.372;8.990;2023-12-29T17:04:52;10.50;99.90
12111;DHT22;6119;52.372;8.990;2023-12-29T17:07:40;10.40;99.90
12111;DHT22;6119;52.372;8.990;2023-12-29T17:10:26;10.30;99.90
12111;DHT22;6119;52.372;8.990;2023-12-29T17:13:13;10.30;99.90
12111;DHT22;6119;52.372;8.990;2023-12-29T17:16:00;10.30;99.90
12111;DHT22;6119;52.372;8.990;2023-12-29T17:18:50;10.00;99.90
12111;DHT22;6119;52.372;8.990;2023-12-29T17:21:38;10.10;99.90
12111;DHT22;6119;52.372;8.990;2023-12-29T17:24:25;10.10;99.90
12111;DHT22;6119;52.372;8.990;2023-12-29T17:27:11;10.00;99.90
12111;DHT22;6119;52.372;8.990;2023-12-29T17:29:58;9.90;99.90
12111;DHT22;6119;52.372;8.990;2023-12-29T17:32:44;9.80;99.90
12111;DHT22;6119;52.372;8.990;2023-12-29T17:35:32;9.80;99.90
12111;DHT22;6119;52.372;8.990;2023-12-29T17:38:19;9.80;99.90
12111;DHT22;6119;52.372;8.990;2023-12-29T17:41:05;9.70;99.90
12111;DHT22;6119;52.372;8.990;2023-12-29T17:43:53;9.70;99.90
12111;DHT22;6119;52.372;8.990;2023-12-29T17:46:40;9.70;99.90
12111;DHT22;6119;52.372;8.990;2023-12-29T17:49:27;9.80;99.90
12111;DHT22;6119;52.372;8.990;2023-12-29T17:52:16;9.70;99.90
12111;DHT22;6119;52.372;8.990;2023-12-29T17:55:04;9.70;99.90
12111;DHT22;6119;52.372;8.990;2023-12-29T17:57:51;9.70;99.90
12111;DHT22;6119;52.372;8.990;2023-12-29T18:00:38;9.60;99.90